createdAt,value
2023-03-05T00:02:51.417Z,4.50
2023-03-05T00:05:58.273Z,4.50
2023-03-05T00:09:03.320Z,4.60
2023-03-05T00:12:06.948Z,4.60
2023-03-05T00:15:10.831Z,4.50
2023-03-05T00:18:13.704Z,4.50
2023-03-05T00:21:20.517Z,4.40
2023-03-05T00:24:24.774Z,4.50
2023-03-05T00:27:27.661Z,4.60
2023-03-05T00:30:30.653Z,4.50
2023-03-05T00:33:33.535Z,4.40
2023-03-05T00:36:39.960Z,4.30
2023-03-05T00:39:44.185Z,4.30
2023-03-05T00:42:47.091Z,4.30
2023-03-05T00:45:49.948Z,4.20
2023-03-05T00:48:52.821Z,4.30
2023-03-05T00:51:55.718Z,4.30
2023-03-05T00:55:00.089Z,4.30
2023-03-05T00:58:03.130Z,4.30
2023-03-05T01:01:07.104Z,4.30
2023-03-05T01:04:10.315Z,4.30
2023-03-05T01:07:13.204Z,4.40
2023-03-05T01:10:17.705Z,4.50
2023-03-05T01:13:20.759Z,4.40
2023-03-05T01:16:23.675Z,4.50
2023-03-05T01:19:26.552Z,4.50
2023-03-05T01:22:29.931Z,4.50
2023-03-05T01:25:35.161Z,4.50
2023-03-05T01:28:38.733Z,4.50
2023-03-05T01:31:41.746Z,4.40
2023-03-05T01:34:45.064Z,4.50
2023-03-05T01:37:48.155Z,4.50
2023-03-05T01:40:52.765Z,4.50
2023-03-05T01:43:55.896Z,4.60
2023-03-05T01:46:58.946Z,4.60
2023-03-05T01:50:02.002Z,4.50
2023-03-05T01:53:08.104Z,4.50
2023-03-05T01:56:12.641Z,4.50
2023-03-05T01:59:16.205Z,4.50
2023-03-05T02:02:22.037Z,4.60
2023-03-05T02:05:27.965Z,4.40
2023-03-05T02:08:30.946Z,4.30
2023-03-05T02:11:36.359Z,4.20
2023-03-05T02:14:41.210Z,4.10
2023-03-05T02:17:44.309Z,3.90
2023-03-05T02:20:49.482Z,4.00
2023-03-05T02:23:53.698Z,4.10
2023-03-05T02:26:56.748Z,4.30
2023-03-05T02:29:59.620Z,4.20
2023-03-05T02:33:02.560Z,4.20
2023-03-05T02:36:06.288Z,4.10
2023-03-05T02:39:10.727Z,4.10
2023-03-05T02:42:13.617Z,4.20
2023-03-05T02:45:16.582Z,4.30
2023-03-05T02:48:19.475Z,4.10
2023-03-05T02:51:22.322Z,4.10
2023-03-05T02:54:26.870Z,4.20
2023-03-05T02:57:29.823Z,4.30
2023-03-05T03:00:32.706Z,4.40
2023-03-05T03:03:35.947Z,4.40
2023-03-05T03:06:38.826Z,4.30
2023-03-05T03:09:43.838Z,4.20
2023-03-05T03:12:46.946Z,4.20
2023-03-05T03:15:49.830Z,4.20
2023-03-05T03:18:53.216Z,4.20
2023-03-05T03:21:56.084Z,4.00
2023-03-05T03:25:00.806Z,4.00
2023-03-05T03:28:03.810Z,4.00
2023-03-05T03:31:06.840Z,4.00
2023-03-05T03:34:09.773Z,4.00
2023-03-05T03:37:12.759Z,4.10
2023-03-05T03:40:17.314Z,4.20
2023-03-05T03:43:20.169Z,4.10
2023-03-05T03:46:23.085Z,4.10
2023-03-05T03:49:27.074Z,4.10
2023-03-05T03:52:29.972Z,4.30
2023-03-05T03:55:34.290Z,4.20
2023-03-05T03:58:37.168Z,4.20
2023-03-05T04:01:40.231Z,4.20
2023-03-05T04:04:43.121Z,4.30
2023-03-05T04:07:46.159Z,4.20
2023-03-05T04:10:50.407Z,4.20
2023-03-05T04:13:53.290Z,4.30
2023-03-05T04:16:56.148Z,4.40
2023-03-05T04:19:59.008Z,4.40
2023-03-05T04:23:01.991Z,4.40
2023-03-05T04:26:06.470Z,4.40
2023-03-05T04:29:09.344Z,4.40
2023-03-05T04:32:12.292Z,4.40
2023-03-05T04:35:15.265Z,4.40
2023-03-05T04:38:18.294Z,4.40
2023-03-05T04:41:22.610Z,4.50
2023-03-05T04:44:26.048Z,4.50
2023-03-05T04:47:29.236Z,4.60
2023-03-05T04:50:32.138Z,4.60
2023-03-05T04:53:35.281Z,4.60
2023-03-05T04:56:39.488Z,4.50
2023-03-05T04:59:42.362Z,4.50
2023-03-05T05:02:47.210Z,4.50
2023-03-05T05:05:56.191Z,4.50
2023-03-05T05:08:59.463Z,4.50
2023-03-05T05:12:03.677Z,4.60
2023-03-05T05:15:09.395Z,4.50
2023-03-05T05:18:12.240Z,4.50
2023-03-05T05:21:18.531Z,4.60
2023-03-05T05:24:21.409Z,4.60
2023-03-05T05:27:25.691Z,4.50
2023-03-05T05:30:28.560Z,4.60
2023-03-05T05:33:31.430Z,4.70
2023-03-05T05:36:34.325Z,4.70
2023-03-05T05:39:37.406Z,4.70
2023-03-05T05:42:41.643Z,4.80
2023-03-05T05:45:45.182Z,4.70
2023-03-05T05:48:48.303Z,4.70
2023-03-05T05:51:51.270Z,4.70
2023-03-05T05:54:54.133Z,4.70
2023-03-05T05:57:58.358Z,4.70
2023-03-05T06:01:01.364Z,4.70
2023-03-05T06:04:04.625Z,4.70
2023-03-05T06:07:08.012Z,4.60
2023-03-05T06:10:12.238Z,4.60
2023-03-05T06:13:16.496Z,4.60
2023-03-05T06:16:23.857Z,4.60
2023-03-05T06:19:26.931Z,4.70
2023-03-05T06:22:29.845Z,4.70
2023-03-05T06:25:32.685Z,4.60
2023-03-05T06:28:37.073Z,4.70
2023-03-05T06:31:40.338Z,4.60
2023-03-05T06:34:43.192Z,4.60
2023-03-05T06:37:46.079Z,4.50
2023-03-05T06:40:48.987Z,4.60
2023-03-05T06:43:53.546Z,4.60
2023-03-05T06:46:56.540Z,4.70
2023-03-05T06:49:59.388Z,4.70
2023-03-05T06:53:02.265Z,4.70
2023-03-05T06:56:05.479Z,4.80
2023-03-05T06:59:11.420Z,4.70
2023-03-05T07:02:14.403Z,4.60
2023-03-05T07:05:17.360Z,4.60
2023-03-05T07:08:20.220Z,4.60
2023-03-05T07:11:23.856Z,4.70
2023-03-05T07:14:28.091Z,4.70
2023-03-05T07:17:31.231Z,4.70
2023-03-05T07:20:35.696Z,4.70
2023-03-05T07:23:38.562Z,4.80
2023-03-05T07:26:41.457Z,4.80
2023-03-05T07:29:45.669Z,4.80
2023-03-05T07:32:48.547Z,4.80
2023-03-05T07:35:51.529Z,4.80
2023-03-05T07:38:54.915Z,4.80
2023-03-05T07:41:57.780Z,4.90
2023-03-05T07:45:02.031Z,4.90
2023-03-05T07:48:05.068Z,4.90
2023-03-05T07:51:09.868Z,4.90
2023-03-05T07:54:12.733Z,4.90
2023-03-05T07:57:15.669Z,4.90
2023-03-05T08:00:20.825Z,4.90
2023-03-05T08:03:23.684Z,4.90
2023-03-05T08:06:26.568Z,4.90
2023-03-05T08:09:29.471Z,4.90
2023-03-05T08:12:32.551Z,4.90
2023-03-05T08:15:38.189Z,4.80
2023-03-05T08:18:41.647Z,4.90
2023-03-05T08:21:44.553Z,5.00
2023-03-05T08:24:47.667Z,5.10
2023-03-05T08:27:50.622Z,5.00
2023-03-05T08:30:54.965Z,4.90
2023-03-05T08:33:59.820Z,4.90
2023-03-05T08:37:02.675Z,4.90
2023-03-05T08:40:06.498Z,4.90
2023-03-05T08:43:09.375Z,4.90
2023-03-05T08:46:15.338Z,5.00
2023-03-05T08:49:18.210Z,5.00
2023-03-05T08:52:21.069Z,5.00
2023-03-05T08:55:24.066Z,5.10
2023-03-05T08:58:27.488Z,5.10
2023-03-05T09:01:32.387Z,5.10
2023-03-05T09:04:35.309Z,5.10
2023-03-05T09:07:38.848Z,5.10
2023-03-05T09:10:43.476Z,5.20
2023-03-05T09:13:46.435Z,5.10
2023-03-05T09:16:50.653Z,5.10
2023-03-05T09:19:53.640Z,5.10
2023-03-05T09:22:56.779Z,5.20
2023-03-05T09:25:59.859Z,5.20
2023-03-05T09:29:02.721Z,5.30
2023-03-05T09:32:07.991Z,5.40
2023-03-05T09:35:12.236Z,5.40
2023-03-05T09:38:15.595Z,5.40
2023-03-05T09:41:27.040Z,5.40
2023-03-05T09:44:42.409Z,5.30
2023-03-05T09:47:53.223Z,5.30
2023-03-05T09:51:02.052Z,5.40
2023-03-05T09:54:07.828Z,5.30
2023-03-05T09:57:18.418Z,5.40
2023-03-05T10:00:31.659Z,5.40
2023-03-05T10:03:54.667Z,5.40
2023-03-05T10:07:02.703Z,5.50
2023-03-05T10:10:10.819Z,5.50
2023-03-05T10:13:22.144Z,5.30
2023-03-05T10:16:53.410Z,5.40
2023-03-05T10:20:43.584Z,5.50
2023-03-05T10:24:05.690Z,5.60
2023-03-05T10:27:15.118Z,5.50
2023-03-05T10:30:33.545Z,5.60
2023-03-05T10:33:44.397Z,5.60
2023-03-05T10:37:00.745Z,5.60
2023-03-05T10:40:12.181Z,5.60
2023-03-05T10:43:25.053Z,5.60
2023-03-05T10:46:32.894Z,5.70
2023-03-05T10:49:39.687Z,5.80
2023-03-05T10:52:46.834Z,5.80
2023-03-05T10:55:50.774Z,5.80
2023-03-05T10:58:54.354Z,5.70
2023-03-05T11:02:04.955Z,5.70
2023-03-05T11:05:35.645Z,5.60
2023-03-05T11:08:40.453Z,5.60
2023-03-05T11:11:43.478Z,5.60
2023-03-05T11:15:02.796Z,5.70
2023-03-05T11:18:21.084Z,5.60
2023-03-05T11:21:27.888Z,5.70
2023-03-05T11:24:32.156Z,5.80
2023-03-05T11:27:38.860Z,5.80
2023-03-05T11:30:42.302Z,5.80
2023-03-05T11:34:00.936Z,5.90
2023-03-05T11:37:08.013Z,5.70
2023-03-05T11:40:21.598Z,5.90
2023-03-05T11:43:26.760Z,5.90
2023-03-05T11:46:30.608Z,5.90
2023-03-05T11:49:35.360Z,5.90
2023-03-05T11:52:46.881Z,6.00
2023-03-05T11:55:55.667Z,6.10
2023-03-05T11:59:02.865Z,6.10
2023-03-05T12:02:19.585Z,6.10
2023-03-05T12:05:23.053Z,6.00
2023-03-05T12:08:31.592Z,5.90
2023-03-05T12:11:37.388Z,5.90
2023-03-05T12:14:47.088Z,5.90
2023-03-05T12:17:57.084Z,6.00
2023-03-05T12:21:07.017Z,6.00
2023-03-05T12:24:35.653Z,6.00
2023-03-05T12:27:40.142Z,5.90
2023-03-05T12:30:58.651Z,5.80
2023-03-05T12:34:21.544Z,5.90
2023-03-05T12:38:01.781Z,5.90
2023-03-05T12:41:43.000Z,6.00
2023-03-05T12:45:07.246Z,6.00
2023-03-05T12:48:37.048Z,6.00
2023-03-05T12:51:41.783Z,6.10
2023-03-05T12:54:45.009Z,6.10
2023-03-05T12:57:51.419Z,5.90
2023-03-05T13:01:03.587Z,5.90
2023-03-05T13:04:14.624Z,6.00
2023-03-05T13:07:19.509Z,6.00
2023-03-05T13:10:24.827Z,6.10
2023-03-05T13:13:30.268Z,6.10
2023-03-05T13:16:39.957Z,6.10
2023-03-05T13:19:43.088Z,6.20
2023-03-05T13:22:45.979Z,6.20
2023-03-05T13:26:00.832Z,6.20
2023-03-05T13:29:10.200Z,6.30
2023-03-05T13:32:26.160Z,6.30
2023-03-05T13:35:29.192Z,6.20
2023-03-05T13:38:37.091Z,6.30
2023-03-05T13:41:40.064Z,6.20
2023-03-05T13:44:42.965Z,6.30
2023-03-05T13:47:53.600Z,6.30
2023-03-05T13:50:58.421Z,6.40
2023-03-05T13:54:01.336Z,6.30
2023-03-05T13:57:06.378Z,6.20
2023-03-05T14:00:28.059Z,6.30
2023-03-05T14:03:34.670Z,6.30
2023-03-05T14:06:43.433Z,6.20
2023-03-05T14:09:49.550Z,6.20
2023-03-05T14:12:52.806Z,6.30
2023-03-05T14:16:05.599Z,6.40
2023-03-05T14:19:34.682Z,6.30
2023-03-05T14:22:39.118Z,6.30
2023-03-05T14:25:42.153Z,6.40
2023-03-05T14:28:45.691Z,6.40
2023-03-05T14:31:50.869Z,6.50
2023-03-05T14:34:58.418Z,6.50
2023-03-05T14:38:01.769Z,6.50
2023-03-05T14:41:20.617Z,6.50
2023-03-05T14:44:25.538Z,6.60
2023-03-05T14:47:29.431Z,6.70
2023-03-05T14:50:35.745Z,6.60
2023-03-05T14:53:43.871Z,6.60
2023-03-05T14:56:49.548Z,6.70
2023-03-05T14:59:52.701Z,6.80
2023-03-05T15:02:56.100Z,6.80
2023-03-05T15:06:00.669Z,6.70
2023-03-05T15:09:05.066Z,6.70
2023-03-05T15:12:08.113Z,6.70
2023-03-05T15:15:14.475Z,6.70
2023-03-05T15:18:18.983Z,6.50
2023-03-05T15:21:23.245Z,6.50
2023-03-05T15:24:26.189Z,6.60
2023-03-05T15:27:29.080Z,6.60
2023-03-05T15:30:34.248Z,6.60
2023-03-05T15:33:37.378Z,6.60
2023-03-05T15:36:41.712Z,6.60
2023-03-05T15:39:44.927Z,6.60
2023-03-05T15:42:48.082Z,6.30
2023-03-05T15:45:50.991Z,6.30
2023-03-05T15:48:54.068Z,6.10
2023-03-05T15:51:59.057Z,6.20
2023-03-05T15:55:02.520Z,6.20
2023-03-05T15:58:05.408Z,6.20
2023-03-05T16:01:08.265Z,6.10
2023-03-05T16:04:11.235Z,6.10
2023-03-05T16:07:16.607Z,6.40
2023-03-05T16:10:22.020Z,6.50
2023-03-05T16:13:28.099Z,6.50
2023-03-05T16:16:32.393Z,6.50
2023-03-05T16:19:37.616Z,6.50
2023-03-05T16:22:41.821Z,6.50
2023-03-05T16:25:44.786Z,6.60
2023-03-05T16:28:47.646Z,6.40
2023-03-05T16:31:50.600Z,6.50
2023-03-05T16:34:53.572Z,6.50
2023-03-05T16:37:57.780Z,6.50
2023-03-05T16:41:08.191Z,6.60
2023-03-05T16:44:11.828Z,6.60
2023-03-05T16:47:14.773Z,6.60
2023-03-05T16:50:18.389Z,6.60
2023-03-05T16:53:22.770Z,6.70
2023-03-05T16:56:25.637Z,6.60
2023-03-05T16:59:28.681Z,6.50
2023-03-05T17:02:31.580Z,6.70
2023-03-05T17:05:37.104Z,6.70
2023-03-05T17:08:42.112Z,6.70
2023-03-05T17:11:44.995Z,6.60
2023-03-05T17:14:47.903Z,6.60
2023-03-05T17:17:51.056Z,6.60
2023-03-05T17:20:54.303Z,6.60
2023-03-05T17:23:58.519Z,6.60
2023-03-05T17:27:02.129Z,6.60
2023-03-05T17:30:06.181Z,6.50
2023-03-05T17:33:09.202Z,6.60
2023-03-05T17:36:16.878Z,6.70
2023-03-05T17:39:21.153Z,6.70
2023-03-05T17:42:24.094Z,6.70
2023-03-05T17:45:28.448Z,6.70
2023-03-05T17:48:33.954Z,6.70
2023-03-05T17:51:37.896Z,6.70
2023-03-05T17:54:42.202Z,6.70
2023-03-05T17:57:47.577Z,6.70
2023-03-05T18:00:50.483Z,6.70
2023-03-05T18:03:53.456Z,6.60
2023-03-05T18:06:56.412Z,6.50
2023-03-05T18:10:00.654Z,6.50
2023-03-05T18:13:03.665Z,6.50
2023-03-05T18:16:07.306Z,6.50
2023-03-05T18:19:10.824Z,6.50
2023-03-05T18:22:13.761Z,6.60
2023-03-05T18:25:18.122Z,6.50
2023-03-05T18:28:22.840Z,6.60
2023-03-05T18:31:26.004Z,6.60
2023-03-05T18:34:29.696Z,6.60
2023-03-05T18:37:32.588Z,6.60
2023-03-05T18:40:37.526Z,6.60
2023-03-05T18:43:40.831Z,6.60
2023-03-05T18:46:43.977Z,6.60
2023-03-05T18:49:46.892Z,6.60
2023-03-05T18:52:49.889Z,6.50
2023-03-05T18:55:55.568Z,6.60
2023-03-05T18:58:59.055Z,6.60
2023-03-05T19:02:02.003Z,6.60
2023-03-05T19:05:05.194Z,6.70
2023-03-05T19:08:08.572Z,6.60
2023-03-05T19:11:17.421Z,6.60
2023-03-05T19:14:20.255Z,6.60
2023-03-05T19:17:23.116Z,6.60
2023-03-05T19:20:25.988Z,6.60
2023-03-05T19:23:29.102Z,6.60
2023-03-05T19:26:33.623Z,6.60
2023-03-05T19:29:37.614Z,6.60
2023-03-05T19:32:40.657Z,6.60
2023-03-05T19:35:43.666Z,6.60
2023-03-05T19:38:48.666Z,6.60
2023-03-05T19:41:53.909Z,6.60
2023-03-05T19:44:58.412Z,6.60
2023-03-05T19:48:03.250Z,6.60
2023-03-05T19:51:11.466Z,6.50
2023-03-05T19:54:16.345Z,6.50
2023-03-05T19:57:20.555Z,6.50
2023-03-05T20:00:26.262Z,6.50
2023-03-05T20:03:29.161Z,6.50
2023-03-05T20:06:33.264Z,6.50
2023-03-05T20:09:36.157Z,6.50
2023-03-05T20:12:40.447Z,6.50
2023-03-05T20:15:43.338Z,6.50
2023-03-05T20:18:47.236Z,6.50
2023-03-05T20:21:50.112Z,6.50
2023-03-05T20:24:53.049Z,6.50
2023-03-05T20:27:57.307Z,6.50
2023-03-05T20:31:02.438Z,6.40
2023-03-05T20:34:06.060Z,6.40
2023-03-05T20:37:08.940Z,6.40
2023-03-05T20:40:13.065Z,6.40
2023-03-05T20:43:18.312Z,6.30
2023-03-05T20:46:23.504Z,6.30
2023-03-05T20:49:26.492Z,6.40
2023-03-05T20:52:29.368Z,6.50
2023-03-05T20:55:32.666Z,6.30
2023-03-05T20:58:37.557Z,6.30
2023-03-05T21:01:41.404Z,6.30
2023-03-05T21:04:44.314Z,6.40
2023-03-05T21:07:47.537Z,6.40
2023-03-05T21:10:50.925Z,6.40
2023-03-05T21:13:55.279Z,6.40
2023-03-05T21:16:58.413Z,6.30
2023-03-05T21:20:01.817Z,6.40
2023-03-05T21:23:04.875Z,6.40
2023-03-05T21:26:07.849Z,6.30
2023-03-05T21:29:12.301Z,6.30
2023-03-05T21:32:15.317Z,6.30
2023-03-05T21:35:21.075Z,6.30
2023-03-05T21:38:24.713Z,6.30
2023-03-05T21:41:27.587Z,6.40
2023-03-05T21:44:31.896Z,6.30
2023-03-05T21:47:35.394Z,6.30
2023-03-05T21:50:41.300Z,6.30
2023-03-05T21:53:44.203Z,6.30
2023-03-05T21:56:47.069Z,6.30
2023-03-05T21:59:51.298Z,6.40
2023-03-05T22:02:54.336Z,6.30
2023-03-05T22:05:57.666Z,6.30
2023-03-05T22:09:00.564Z,6.20
2023-03-05T22:12:04.687Z,6.10
2023-03-05T22:15:10.652Z,6.20
2023-03-05T22:18:14.538Z,6.20
2023-03-05T22:21:19.498Z,6.20
2023-03-05T22:24:25.008Z,6.20
2023-03-05T22:27:27.855Z,6.20
2023-03-05T22:30:32.658Z,6.10
2023-03-05T22:33:36.146Z,6.20
2023-03-05T22:36:39.050Z,6.10
2023-03-05T22:39:41.925Z,6.10
2023-03-05T22:42:45.716Z,6.10
2023-03-05T22:45:50.058Z,6.10
2023-03-05T22:48:53.483Z,6.10
2023-03-05T22:51:56.336Z,6.20
2023-03-05T22:55:01.275Z,6.10
2023-03-05T22:58:04.133Z,6.10
2023-03-05T23:01:14.013Z,6.00
2023-03-05T23:04:28.959Z,6.00
2023-03-05T23:07:34.526Z,6.10
2023-03-05T23:10:38.157Z,6.10
2023-03-05T23:13:41.895Z,6.10
2023-03-05T23:16:46.103Z,6.10
2023-03-05T23:19:49.039Z,6.10
2023-03-05T23:22:53.624Z,6.10
2023-03-05T23:25:56.665Z,6.10
2023-03-05T23:28:59.561Z,6.10
2023-03-05T23:32:04.149Z,6.10
2023-03-05T23:35:07.608Z,6.00
2023-03-05T23:38:13.466Z,6.00
2023-03-05T23:41:16.322Z,6.10
2023-03-05T23:44:19.180Z,6.10
2023-03-05T23:47:23.364Z,6.10
2023-03-05T23:50:28.796Z,6.10
2023-03-05T23:53:32.842Z,6.10
2023-03-05T23:56:35.711Z,6.10
2023-03-05T23:59:38.821Z,6.10
